sensor_id;sensor_type;location;lat;lon;timestamp;P1;durP1;ratioP1;P2;durP2;ratioP2
3601;SDS011;1815;50.950;6.920;2023-05-24T00:01:40;4.20;;;1.10;;
3601;SDS011;1815;50.950;6.920;2023-05-24T00:04:06;6.60;;;1.20;;
3601;SDS011;1815;50.950;6.920;2023-05-24T00:06:33;3.97;;;1.20;;
3601;SDS011;1815;50.950;6.920;2023-05-24T00:09:04;3.67;;;1.60;;
3601;SDS011;1815;50.950;6.920;2023-05-24T00:11:30;6.65;;;1.30;;
3601;SDS011;1815;50.950;6.920;2023-05-24T00:13:56;5.40;;;0.93;;
3601;SDS011;1815;50.950;6.920;2023-05-24T00:16:22;6.57;;;1.47;;
3601;SDS011;1815;50.950;6.920;2023-05-24T00:18:47;6.37;;;1.63;;
3601;SDS011;1815;50.950;6.920;2023-05-24T00:21:13;2.20;;;1.17;;
3601;SDS011;1815;50.950;6.920;2023-05-24T00:23:40;3.03;;;1.02;;
3601;SDS011;1815;50.950;6.920;2023-05-24T00:26:09;5.95;;;1.65;;
3601;SDS011;1815;50.950;6.920;2023-05-24T00:28:38;5.63;;;1.30;;
3601;SDS011;1815;50.950;6.920;2023-05-24T00:31:03;4.90;;;2.10;;
3601;SDS011;1815;50.950;6.920;2023-05-24T00:33:29;7.77;;;1.60;;
3601;SDS011;1815;50.950;6.920;2023-05-24T00:35:55;4.03;;;1.10;;
3601;SDS011;1815;50.950;6.920;2023-05-24T00:38:21;6.27;;;1.80;;
3601;SDS011;1815;50.950;6.920;2023-05-24T00:40:51;7.05;;;1.42;;
3601;SDS011;1815;50.950;6.920;2023-05-24T00:43:20;4.78;;;1.70;;
3601;SDS011;1815;50.950;6.920;2023-05-24T00:45:46;7.50;;;1.98;;
3601;SDS011;1815;50.950;6.920;2023-05-24T00:48:12;5.43;;;1.17;;
3601;SDS011;1815;50.950;6.920;2023-05-24T00:50:38;5.05;;;1.90;;
3601;SDS011;1815;50.950;6.920;2023-05-24T00:53:05;8.40;;;1.70;;
3601;SDS011;1815;50.950;6.920;2023-05-24T00:55:33;5.70;;;1.50;;
3601;SDS011;1815;50.950;6.920;2023-05-24T00:58:00;5.03;;;1.33;;
3601;SDS011;1815;50.950;6.920;2023-05-24T01:00:26;4.70;;;1.10;;
3601;SDS011;1815;50.950;6.920;2023-05-24T01:02:53;5.45;;;1.30;;
3601;SDS011;1815;50.950;6.920;2023-05-24T01:05:20;5.78;;;1.85;;
3601;SDS011;1815;50.950;6.920;2023-05-24T01:18:23;9.63;;;1.98;;
3601;SDS011;1815;50.950;6.920;2023-05-24T01:21:04;10.70;;;1.50;;
3601;SDS011;1815;50.950;6.920;2023-05-24T01:23:46;6.97;;;1.20;;
3601;SDS011;1815;50.950;6.920;2023-05-24T01:29:26;7.65;;;1.35;;
3601;SDS011;1815;50.950;6.920;2023-05-24T01:31:57;4.43;;;1.13;;
3601;SDS011;1815;50.950;6.920;2023-05-24T01:34:24;4.43;;;1.27;;
3601;SDS011;1815;50.950;6.920;2023-05-24T01:36:50;11.02;;;1.80;;
3601;SDS011;1815;50.950;6.920;2023-05-24T01:39:16;11.60;;;2.10;;
3601;SDS011;1815;50.950;6.920;2023-05-24T01:48:01;3.50;;;1.17;;
3601;SDS011;1815;50.950;6.920;2023-05-24T01:50:37;4.88;;;1.30;;
3601;SDS011;1815;50.950;6.920;2023-05-24T01:53:12;6.22;;;1.33;;
3601;SDS011;1815;50.950;6.920;2023-05-24T01:55:42;4.18;;;1.00;;
3601;SDS011;1815;50.950;6.920;2023-05-24T01:58:12;5.05;;;1.33;;
3601;SDS011;1815;50.950;6.920;2023-05-24T02:00:39;4.25;;;1.55;;
3601;SDS011;1815;50.950;6.920;2023-05-24T02:03:07;3.30;;;1.88;;
3601;SDS011;1815;50.950;6.920;2023-05-24T02:05:34;6.15;;;1.13;;
3601;SDS011;1815;50.950;6.920;2023-05-24T02:08:04;4.65;;;1.88;;
3601;SDS011;1815;50.950;6.920;2023-05-24T02:10:30;8.00;;;2.20;;
3601;SDS011;1815;50.950;6.920;2023-05-24T02:12:55;5.47;;;1.97;;
3601;SDS011;1815;50.950;6.920;2023-05-24T02:15:23;2.95;;;1.30;;
3601;SDS011;1815;50.950;6.920;2023-05-24T02:17:50;8.50;;;2.33;;
3601;SDS011;1815;50.950;6.920;2023-05-24T02:20:18;3.30;;;1.50;;
3601;SDS011;1815;50.950;6.920;2023-05-24T02:22:46;7.85;;;2.25;;
3601;SDS011;1815;50.950;6.920;2023-05-24T02:25:13;6.38;;;1.48;;
3601;SDS011;1815;50.950;6.920;2023-05-24T02:27:38;5.80;;;1.40;;
3601;SDS011;1815;50.950;6.920;2023-05-24T02:30:06;8.32;;;2.65;;
3601;SDS011;1815;50.950;6.920;2023-05-24T02:32:32;6.00;;;2.13;;
3601;SDS011;1815;50.950;6.920;2023-05-24T02:35:01;6.63;;;1.40;;
3601;SDS011;1815;50.950;6.920;2023-05-24T02:37:27;5.00;;;1.80;;
3601;SDS011;1815;50.950;6.920;2023-05-24T02:39:53;4.40;;;1.17;;
3601;SDS011;1815;50.950;6.920;2023-05-24T02:42:18;4.10;;;1.60;;
3601;SDS011;1815;50.950;6.920;2023-05-24T02:44:44;3.90;;;1.33;;
3601;SDS011;1815;50.950;6.920;2023-05-24T02:47:13;9.70;;;2.22;;
3601;SDS011;1815;50.950;6.920;2023-05-24T02:49:39;7.60;;;1.60;;
3601;SDS011;1815;50.950;6.920;2023-05-24T02:52:05;6.37;;;1.83;;
3601;SDS011;1815;50.950;6.920;2023-05-24T02:54:31;3.20;;;1.60;;
3601;SDS011;1815;50.950;6.920;2023-05-24T02:56:57;6.23;;;1.33;;
3601;SDS011;1815;50.950;6.920;2023-05-24T02:59:27;6.47;;;1.30;;
3601;SDS011;1815;50.950;6.920;2023-05-24T03:01:53;9.70;;;1.90;;
3601;SDS011;1815;50.950;6.920;2023-05-24T03:04:19;9.20;;;2.00;;
3601;SDS011;1815;50.950;6.920;2023-05-24T03:06:44;6.40;;;1.67;;
3601;SDS011;1815;50.950;6.920;2023-05-24T03:09:11;7.35;;;1.90;;
3601;SDS011;1815;50.950;6.920;2023-05-24T03:11:37;6.13;;;1.57;;
3601;SDS011;1815;50.950;6.920;2023-05-24T03:14:03;7.23;;;1.63;;
3601;SDS011;1815;50.950;6.920;2023-05-24T03:16:31;4.20;;;1.60;;
3601;SDS011;1815;50.950;6.920;2023-05-24T03:18:57;4.93;;;2.10;;
3601;SDS011;1815;50.950;6.920;2023-05-24T03:21:24;7.80;;;1.90;;
3601;SDS011;1815;50.950;6.920;2023-05-24T03:23:50;5.70;;;1.45;;
3601;SDS011;1815;50.950;6.920;2023-05-24T03:26:16;6.35;;;1.73;;
3601;SDS011;1815;50.950;6.920;2023-05-24T03:28:45;4.13;;;1.40;;
3601;SDS011;1815;50.950;6.920;2023-05-24T03:31:12;6.85;;;1.83;;
3601;SDS011;1815;50.950;6.920;2023-05-24T03:33:38;5.90;;;2.60;;
3601;SDS011;1815;50.950;6.920;2023-05-24T03:36:04;9.63;;;2.87;;
3601;SDS011;1815;50.950;6.920;2023-05-24T03:38:31;4.63;;;1.70;;
3601;SDS011;1815;50.950;6.920;2023-05-24T03:40:58;2.70;;;1.63;;
3601;SDS011;1815;50.950;6.920;2023-05-24T03:43:24;4.55;;;1.63;;
3601;SDS011;1815;50.950;6.920;2023-05-24T03:45:55;4.60;;;1.30;;
3601;SDS011;1815;50.950;6.920;2023-05-24T03:48:21;5.80;;;2.77;;
3601;SDS011;1815;50.950;6.920;2023-05-24T03:50:49;11.60;;;3.40;;
3601;SDS011;1815;50.950;6.920;2023-05-24T03:53:15;5.82;;;2.10;;
3601;SDS011;1815;50.950;6.920;2023-05-24T03:55:41;10.80;;;1.63;;
3601;SDS011;1815;50.950;6.920;2023-05-24T03:58:07;11.30;;;2.10;;
3601;SDS011;1815;50.950;6.920;2023-05-24T04:00:34;5.25;;;1.95;;
3601;SDS011;1815;50.950;6.920;2023-05-24T04:03:00;5.13;;;1.40;;
3601;SDS011;1815;50.950;6.920;2023-05-24T04:05:27;6.95;;;2.38;;
3601;SDS011;1815;50.950;6.920;2023-05-24T04:07:54;10.60;;;1.80;;
3601;SDS011;1815;50.950;6.920;2023-05-24T04:10:20;5.20;;;1.90;;
3601;SDS011;1815;50.950;6.920;2023-05-24T04:12:47;7.75;;;2.17;;
3601;SDS011;1815;50.950;6.920;2023-05-24T04:15:13;6.90;;;1.93;;
3601;SDS011;1815;50.950;6.920;2023-05-24T04:17:43;4.80;;;1.55;;
3601;SDS011;1815;50.950;6.920;2023-05-24T04:20:10;8.88;;;2.40;;
3601;SDS011;1815;50.950;6.920;2023-05-24T04:22:37;10.15;;;3.40;;
3601;SDS011;1815;50.950;6.920;2023-05-24T04:25:03;7.15;;;2.33;;
3601;SDS011;1815;50.950;6.920;2023-05-24T04:27:31;9.68;;;2.60;;
3601;SDS011;1815;50.950;6.920;2023-05-24T04:29:57;9.43;;;2.45;;
3601;SDS011;1815;50.950;6.920;2023-05-24T04:32:23;8.73;;;3.20;;
3601;SDS011;1815;50.950;6.920;2023-05-24T04:34:49;7.33;;;1.93;;
3601;SDS011;1815;50.950;6.920;2023-05-24T04:37:16;6.60;;;2.22;;
3601;SDS011;1815;50.950;6.920;2023-05-24T04:39:44;6.93;;;2.17;;
3601;SDS011;1815;50.950;6.920;2023-05-24T04:42:14;6.87;;;1.80;;
3601;SDS011;1815;50.950;6.920;2023-05-24T04:44:40;7.43;;;2.10;;
3601;SDS011;1815;50.950;6.920;2023-05-24T04:47:06;6.80;;;2.13;;
3601;SDS011;1815;50.950;6.920;2023-05-24T04:49:33;6.90;;;2.35;;
3601;SDS011;1815;50.950;6.920;2023-05-24T04:51:58;7.10;;;1.87;;
3601;SDS011;1815;50.950;6.920;2023-05-24T04:54:24;8.10;;;2.03;;
3601;SDS011;1815;50.950;6.920;2023-05-24T04:56:50;6.93;;;2.03;;
3601;SDS011;1815;50.950;6.920;2023-05-24T04:59:16;7.95;;;2.60;;
3601;SDS011;1815;50.950;6.920;2023-05-24T05:01:42;7.20;;;3.17;;
3601;SDS011;1815;50.950;6.920;2023-05-24T05:04:07;6.33;;;2.63;;
3601;SDS011;1815;50.950;6.920;2023-05-24T05:06:33;6.30;;;2.10;;
3601;SDS011;1815;50.950;6.920;2023-05-24T05:09:06;9.20;;;2.25;;
3601;SDS011;1815;50.950;6.920;2023-05-24T05:11:33;6.53;;;1.85;;
3601;SDS011;1815;50.950;6.920;2023-05-24T05:13:59;8.53;;;1.90;;
3601;SDS011;1815;50.950;6.920;2023-05-24T05:16:26;3.88;;;1.75;;
3601;SDS011;1815;50.950;6.920;2023-05-24T05:18:53;8.55;;;2.17;;
3601;SDS011;1815;50.950;6.920;2023-05-24T05:21:18;9.33;;;2.50;;
3601;SDS011;1815;50.950;6.920;2023-05-24T05:23:44;6.50;;;1.97;;
3601;SDS011;1815;50.950;6.920;2023-05-24T05:26:10;12.07;;;2.13;;
3601;SDS011;1815;50.950;6.920;2023-05-24T05:28:36;7.87;;;2.57;;
3601;SDS011;1815;50.950;6.920;2023-05-24T05:31:02;7.90;;;2.00;;
3601;SDS011;1815;50.950;6.920;2023-05-24T05:33:29;9.80;;;2.70;;
3601;SDS011;1815;50.950;6.920;2023-05-24T05:35:55;12.97;;;2.80;;
3601;SDS011;1815;50.950;6.920;2023-05-24T05:38:21;7.93;;;2.63;;
3601;SDS011;1815;50.950;6.920;2023-05-24T05:40:47;5.47;;;2.47;;
3601;SDS011;1815;50.950;6.920;2023-05-24T05:43:13;9.30;;;2.90;;
3601;SDS011;1815;50.950;6.920;2023-05-24T05:45:38;7.90;;;2.40;;
3601;SDS011;1815;50.950;6.920;2023-05-24T05:48:04;9.90;;;2.63;;
3601;SDS011;1815;50.950;6.920;2023-05-24T05:50:30;7.70;;;2.50;;
3601;SDS011;1815;50.950;6.920;2023-05-24T05:52:59;6.30;;;2.10;;
3601;SDS011;1815;50.950;6.920;2023-05-24T05:55:24;7.80;;;2.27;;
3601;SDS011;1815;50.950;6.920;2023-05-24T05:57:50;10.87;;;3.27;;
3601;SDS011;1815;50.950;6.920;2023-05-24T06:00:16;9.80;;;2.40;;
3601;SDS011;1815;50.950;6.920;2023-05-24T06:02:42;8.30;;;2.20;;
3601;SDS011;1815;50.950;6.920;2023-05-24T06:05:08;7.23;;;2.37;;
3601;SDS011;1815;50.950;6.920;2023-05-24T06:07:33;11.83;;;3.37;;
3601;SDS011;1815;50.950;6.920;2023-05-24T06:10:01;12.10;;;3.03;;
3601;SDS011;1815;50.950;6.920;2023-05-24T06:12:27;8.53;;;2.53;;
3601;SDS011;1815;50.950;6.920;2023-05-24T06:14:53;12.07;;;2.20;;
3601;SDS011;1815;50.950;6.920;2023-05-24T06:17:21;11.00;;;2.07;;
3601;SDS011;1815;50.950;6.920;2023-05-24T06:19:49;6.60;;;2.40;;
3601;SDS011;1815;50.950;6.920;2023-05-24T06:22:17;7.10;;;1.90;;
3601;SDS011;1815;50.950;6.920;2023-05-24T06:24:44;7.37;;;2.90;;
3601;SDS011;1815;50.950;6.920;2023-05-24T06:27:10;12.00;;;3.40;;
3601;SDS011;1815;50.950;6.920;2023-05-24T06:29:36;9.20;;;2.90;;
3601;SDS011;1815;50.950;6.920;2023-05-24T06:32:02;8.90;;;2.93;;
3601;SDS011;1815;50.950;6.920;2023-05-24T06:34:28;7.90;;;2.43;;
3601;SDS011;1815;50.950;6.920;2023-05-24T06:36:54;4.77;;;2.10;;
3601;SDS011;1815;50.950;6.920;2023-05-24T06:39:19;7.30;;;2.50;;
3601;SDS011;1815;50.950;6.920;2023-05-24T06:41:45;7.17;;;2.70;;
3601;SDS011;1815;50.950;6.920;2023-05-24T06:44:11;6.17;;;2.43;;
3601;SDS011;1815;50.950;6.920;2023-05-24T06:46:38;7.90;;;2.40;;
3601;SDS011;1815;50.950;6.920;2023-05-24T06:49:04;7.03;;;2.13;;
3601;SDS011;1815;50.950;6.920;2023-05-24T06:51:29;7.73;;;2.47;;
3601;SDS011;1815;50.950;6.920;2023-05-24T06:53:57;9.07;;;3.33;;
3601;SDS011;1815;50.950;6.920;2023-05-24T06:56:23;6.07;;;2.17;;
3601;SDS011;1815;50.950;6.920;2023-05-24T06:58:51;7.30;;;2.43;;
3601;SDS011;1815;50.950;6.920;2023-05-24T07:01:16;5.33;;;1.97;;
3601;SDS011;1815;50.950;6.920;2023-05-24T07:03:42;6.23;;;2.13;;
3601;SDS011;1815;50.950;6.920;2023-05-24T07:06:08;6.50;;;2.70;;
3601;SDS011;1815;50.950;6.920;2023-05-24T07:08:38;7.70;;;2.40;;
3601;SDS011;1815;50.950;6.920;2023-05-24T07:11:05;9.47;;;2.20;;
3601;SDS011;1815;50.950;6.920;2023-05-24T07:13:32;8.17;;;3.20;;
3601;SDS011;1815;50.950;6.920;2023-05-24T07:15:58;9.80;;;2.40;;
3601;SDS011;1815;50.950;6.920;2023-05-24T07:18:23;8.10;;;1.83;;
3601;SDS011;1815;50.950;6.920;2023-05-24T07:20:49;7.70;;;2.60;;
3601;SDS011;1815;50.950;6.920;2023-05-24T07:23:15;10.10;;;2.57;;
3601;SDS011;1815;50.950;6.920;2023-05-24T07:25:41;7.47;;;1.77;;
3601;SDS011;1815;50.950;6.920;2023-05-24T07:28:08;10.87;;;3.33;;
3601;SDS011;1815;50.950;6.920;2023-05-24T07:30:34;5.47;;;1.80;;
3601;SDS011;1815;50.950;6.920;2023-05-24T07:32:59;6.70;;;2.30;;
3601;SDS011;1815;50.950;6.920;2023-05-24T07:35:26;6.30;;;2.50;;
3601;SDS011;1815;50.950;6.920;2023-05-24T07:37:53;7.90;;;2.53;;
3601;SDS011;1815;50.950;6.920;2023-05-24T07:40:19;9.47;;;2.30;;
3601;SDS011;1815;50.950;6.920;2023-05-24T07:42:45;7.47;;;2.20;;
3601;SDS011;1815;50.950;6.920;2023-05-24T07:45:11;9.43;;;2.93;;
3601;SDS011;1815;50.950;6.920;2023-05-24T07:47:38;7.77;;;2.63;;
3601;SDS011;1815;50.950;6.920;2023-05-24T07:50:04;7.60;;;2.70;;
3601;SDS011;1815;50.950;6.920;2023-05-24T07:52:30;3.83;;;1.80;;
3601;SDS011;1815;50.950;6.920;2023-05-24T07:54:56;8.53;;;2.20;;
3601;SDS011;1815;50.950;6.920;2023-05-24T07:57:21;6.07;;;2.07;;
3601;SDS011;1815;50.950;6.920;2023-05-24T07:59:48;7.90;;;1.97;;
3601;SDS011;1815;50.950;6.920;2023-05-24T08:02:14;7.70;;;1.90;;
3601;SDS011;1815;50.950;6.920;2023-05-24T08:04:41;7.87;;;2.10;;
3601;SDS011;1815;50.950;6.920;2023-05-24T08:07:10;6.17;;;2.60;;
3601;SDS011;1815;50.950;6.920;2023-05-24T08:09:36;5.80;;;2.03;;
3601;SDS011;1815;50.950;6.920;2023-05-24T08:12:05;13.40;;;2.50;;
3601;SDS011;1815;50.950;6.920;2023-05-24T08:14:31;6.37;;;2.13;;
3601;SDS011;1815;50.950;6.920;2023-05-24T08:16:57;5.60;;;1.90;;
3601;SDS011;1815;50.950;6.920;2023-05-24T08:19:25;5.00;;;1.90;;
3601;SDS011;1815;50.950;6.920;2023-05-24T08:21:52;7.03;;;2.10;;
3601;SDS011;1815;50.950;6.920;2023-05-24T08:24:21;9.23;;;2.40;;
3601;SDS011;1815;50.950;6.920;2023-05-24T08:26:48;9.13;;;2.43;;
3601;SDS011;1815;50.950;6.920;2023-05-24T08:29:15;6.83;;;1.73;;
3601;SDS011;1815;50.950;6.920;2023-05-24T08:31:41;6.70;;;2.60;;
3601;SDS011;1815;50.950;6.920;2023-05-24T08:34:08;8.00;;;3.20;;
3601;SDS011;1815;50.950;6.920;2023-05-24T08:36:34;8.37;;;2.60;;
3601;SDS011;1815;50.950;6.920;2023-05-24T08:39:01;8.80;;;2.83;;
3601;SDS011;1815;50.950;6.920;2023-05-24T08:41:27;7.87;;;2.60;;
3601;SDS011;1815;50.950;6.920;2023-05-24T08:43:53;6.70;;;2.47;;
3601;SDS011;1815;50.950;6.920;2023-05-24T08:46:24;7.30;;;2.70;;
3601;SDS011;1815;50.950;6.920;2023-05-24T08:48:50;7.93;;;3.30;;
3601;SDS011;1815;50.950;6.920;2023-05-24T08:51:16;8.00;;;3.20;;
3601;SDS011;1815;50.950;6.920;2023-05-24T08:53:45;7.47;;;2.47;;
3601;SDS011;1815;50.950;6.920;2023-05-24T08:56:15;8.07;;;2.60;;
3601;SDS011;1815;50.950;6.920;2023-05-24T08:58:41;7.73;;;2.40;;
3601;SDS011;1815;50.950;6.920;2023-05-24T09:01:08;6.70;;;2.10;;
3601;SDS011;1815;50.950;6.920;2023-05-24T09:03:35;6.87;;;2.23;;
3601;SDS011;1815;50.950;6.920;2023-05-24T09:06:01;6.17;;;2.50;;
3601;SDS011;1815;50.950;6.920;2023-05-24T09:08:28;8.77;;;2.27;;
3601;SDS011;1815;50.950;6.920;2023-05-24T09:10:57;8.53;;;2.47;;
3601;SDS011;1815;50.950;6.920;2023-05-24T09:13:24;8.73;;;3.13;;
3601;SDS011;1815;50.950;6.920;2023-05-24T09:15:51;9.40;;;3.27;;
3601;SDS011;1815;50.950;6.920;2023-05-24T09:18:17;9.60;;;2.77;;
3601;SDS011;1815;50.950;6.920;2023-05-24T09:20:43;5.90;;;2.50;;
3601;SDS011;1815;50.950;6.920;2023-05-24T09:23:10;7.50;;;3.87;;
3601;SDS011;1815;50.950;6.920;2023-05-24T09:25:41;7.83;;;3.00;;
3601;SDS011;1815;50.950;6.920;2023-05-24T09:28:08;9.20;;;4.57;;
3601;SDS011;1815;50.950;6.920;2023-05-24T09:30:39;8.70;;;3.53;;
3601;SDS011;1815;50.950;6.920;2023-05-24T09:33:08;16.03;;;5.17;;
3601;SDS011;1815;50.950;6.920;2023-05-24T09:35:34;6.27;;;2.93;;
3601;SDS011;1815;50.950;6.920;2023-05-24T09:38:01;7.40;;;3.30;;
3601;SDS011;1815;50.950;6.920;2023-05-24T09:40:28;7.10;;;4.77;;
3601;SDS011;1815;50.950;6.920;2023-05-24T09:43:01;7.13;;;4.30;;
3601;SDS011;1815;50.950;6.920;2023-05-24T09:45:27;8.43;;;4.70;;
3601;SDS011;1815;50.950;6.920;2023-05-24T09:47:53;7.60;;;4.63;;
3601;SDS011;1815;50.950;6.920;2023-05-24T09:50:19;11.53;;;5.60;;
3601;SDS011;1815;50.950;6.920;2023-05-24T09:52:45;6.47;;;5.17;;
3601;SDS011;1815;50.950;6.920;2023-05-24T09:55:15;10.57;;;5.37;;
3601;SDS011;1815;50.950;6.920;2023-05-24T09:57:43;11.83;;;4.77;;
3601;SDS011;1815;50.950;6.920;2023-05-24T10:00:09;9.10;;;5.27;;
3601;SDS011;1815;50.950;6.920;2023-05-24T10:02:44;7.77;;;5.00;;
3601;SDS011;1815;50.950;6.920;2023-05-24T10:05:10;12.00;;;6.10;;
3601;SDS011;1815;50.950;6.920;2023-05-24T10:07:37;12.10;;;6.30;;
3601;SDS011;1815;50.950;6.920;2023-05-24T10:10:04;16.23;;;6.50;;
3601;SDS011;1815;50.950;6.920;2023-05-24T10:12:32;12.43;;;6.97;;
3601;SDS011;1815;50.950;6.920;2023-05-24T10:14:59;10.07;;;6.33;;
3601;SDS011;1815;50.950;6.920;2023-05-24T10:17:28;12.00;;;7.13;;
3601;SDS011;1815;50.950;6.920;2023-05-24T10:19:54;10.90;;;5.53;;
3601;SDS011;1815;50.950;6.920;2023-05-24T10:22:20;8.10;;;5.80;;
3601;SDS011;1815;50.950;6.920;2023-05-24T10:24:48;10.70;;;5.53;;
3601;SDS011;1815;50.950;6.920;2023-05-24T10:27:16;8.13;;;5.90;;
3601;SDS011;1815;50.950;6.920;2023-05-24T10:32:47;13.10;;;6.87;;
3601;SDS011;1815;50.950;6.920;2023-05-24T10:35:14;10.97;;;6.10;;
3601;SDS011;1815;50.950;6.920;2023-05-24T10:37:42;9.67;;;5.77;;
3601;SDS011;1815;50.950;6.920;2023-05-24T10:40:17;7.63;;;5.03;;
3601;SDS011;1815;50.950;6.920;2023-05-24T10:42:49;10.07;;;5.83;;
3601;SDS011;1815;50.950;6.920;2023-05-24T10:47:47;9.43;;;5.40;;
3601;SDS011;1815;50.950;6.920;2023-05-24T10:50:17;10.40;;;5.17;;
3601;SDS011;1815;50.950;6.920;2023-05-24T10:52:43;8.40;;;5.23;;
3601;SDS011;1815;50.950;6.920;2023-05-24T10:55:09;11.23;;;5.27;;
3601;SDS011;1815;50.950;6.920;2023-05-24T10:57:36;9.07;;;5.63;;
3601;SDS011;1815;50.950;6.920;2023-05-24T11:02:49;6.17;;;4.80;;
3601;SDS011;1815;50.950;6.920;2023-05-24T11:05:16;8.60;;;5.40;;
3601;SDS011;1815;50.950;6.920;2023-05-24T11:07:42;9.10;;;5.43;;
3601;SDS011;1815;50.950;6.920;2023-05-24T11:10:12;7.63;;;4.70;;
3601;SDS011;1815;50.950;6.920;2023-05-24T11:12:40;9.23;;;5.33;;
3601;SDS011;1815;50.950;6.920;2023-05-24T11:15:08;9.60;;;5.93;;
3601;SDS011;1815;50.950;6.920;2023-05-24T11:20:31;8.90;;;4.50;;
3601;SDS011;1815;50.950;6.920;2023-05-24T11:22:57;7.80;;;4.77;;
3601;SDS011;1815;50.950;6.920;2023-05-24T11:25:24;9.70;;;4.77;;
3601;SDS011;1815;50.950;6.920;2023-05-24T11:27:51;7.43;;;4.00;;
3601;SDS011;1815;50.950;6.920;2023-05-24T11:30:17;7.80;;;4.60;;
3601;SDS011;1815;50.950;6.920;2023-05-24T11:32:47;6.00;;;4.30;;
3601;SDS011;1815;50.950;6.920;2023-05-24T11:35:13;10.60;;;4.73;;
3601;SDS011;1815;50.950;6.920;2023-05-24T11:37:40;8.00;;;3.87;;
3601;SDS011;1815;50.950;6.920;2023-05-24T11:40:07;9.40;;;3.63;;
3601;SDS011;1815;50.950;6.920;2023-05-24T11:42:36;8.10;;;4.10;;
3601;SDS011;1815;50.950;6.920;2023-05-24T11:45:03;12.00;;;3.70;;
3601;SDS011;1815;50.950;6.920;2023-05-24T11:47:37;6.80;;;3.50;;
3601;SDS011;1815;50.950;6.920;2023-05-24T11:50:02;7.70;;;3.77;;
3601;SDS011;1815;50.950;6.920;2023-05-24T11:52:30;9.73;;;3.20;;
3601;SDS011;1815;50.950;6.920;2023-05-24T11:54:55;6.60;;;4.00;;
3601;SDS011;1815;50.950;6.920;2023-05-24T11:57:24;8.67;;;4.27;;
3601;SDS011;1815;50.950;6.920;2023-05-24T11:59:54;9.70;;;3.63;;
3601;SDS011;1815;50.950;6.920;2023-05-24T12:02:22;15.47;;;4.13;;
3601;SDS011;1815;50.950;6.920;2023-05-24T12:04:47;7.43;;;4.37;;
3601;SDS011;1815;50.950;6.920;2023-05-24T12:07:13;9.57;;;3.80;;
3601;SDS011;1815;50.950;6.920;2023-05-24T12:09:40;8.13;;;3.17;;
3601;SDS011;1815;50.950;6.920;2023-05-24T12:12:06;9.30;;;3.57;;
3601;SDS011;1815;50.950;6.920;2023-05-24T12:14:32;7.13;;;3.60;;
3601;SDS011;1815;50.950;6.920;2023-05-24T12:16:59;6.93;;;3.23;;
3601;SDS011;1815;50.950;6.920;2023-05-24T12:19:30;5.30;;;2.50;;
3601;SDS011;1815;50.950;6.920;2023-05-24T12:22:03;9.60;;;3.60;;
3601;SDS011;1815;50.950;6.920;2023-05-24T12:24:30;8.03;;;2.80;;
3601;SDS011;1815;50.950;6.920;2023-05-24T12:26:59;7.53;;;2.70;;
3601;SDS011;1815;50.950;6.920;2023-05-24T12:29:39;6.50;;;3.03;;
3601;SDS011;1815;50.950;6.920;2023-05-24T12:32:05;8.23;;;2.43;;
3601;SDS011;1815;50.950;6.920;2023-05-24T12:34:36;6.80;;;2.90;;
3601;SDS011;1815;50.950;6.920;2023-05-24T12:37:04;6.90;;;4.73;;
3601;SDS011;1815;50.950;6.920;2023-05-24T12:39:34;6.17;;;3.07;;
3601;SDS011;1815;50.950;6.920;2023-05-24T12:42:01;9.60;;;3.13;;
3601;SDS011;1815;50.950;6.920;2023-05-24T12:44:34;8.67;;;3.20;;
3601;SDS011;1815;50.950;6.920;2023-05-24T12:47:01;9.43;;;3.23;;
3601;SDS011;1815;50.950;6.920;2023-05-24T12:49:28;5.30;;;2.70;;
3601;SDS011;1815;50.950;6.920;2023-05-24T12:51:55;11.40;;;2.30;;
3601;SDS011;1815;50.950;6.920;2023-05-24T12:54:21;5.70;;;2.40;;
3601;SDS011;1815;50.950;6.920;2023-05-24T12:56:49;7.70;;;2.53;;
3601;SDS011;1815;50.950;6.920;2023-05-24T12:59:15;11.23;;;2.87;;
3601;SDS011;1815;50.950;6.920;2023-05-24T13:01:41;9.20;;;2.63;;
3601;SDS011;1815;50.950;6.920;2023-05-24T13:04:08;7.05;;;3.20;;
3601;SDS011;1815;50.950;6.920;2023-05-24T13:06:35;7.13;;;2.97;;
3601;SDS011;1815;50.950;6.920;2023-05-24T13:09:01;4.57;;;2.60;;
3601;SDS011;1815;50.950;6.920;2023-05-24T13:11:27;10.93;;;3.63;;
3601;SDS011;1815;50.950;6.920;2023-05-24T13:13:56;6.03;;;2.23;;
3601;SDS011;1815;50.950;6.920;2023-05-24T13:16:23;6.67;;;2.53;;
3601;SDS011;1815;50.950;6.920;2023-05-24T13:18:50;3.63;;;1.90;;
3601;SDS011;1815;50.950;6.920;2023-05-24T13:21:16;5.33;;;2.27;;
3601;SDS011;1815;50.950;6.920;2023-05-24T13:23:42;4.27;;;2.07;;
3601;SDS011;1815;50.950;6.920;2023-05-24T13:26:08;8.23;;;2.60;;
3601;SDS011;1815;50.950;6.920;2023-05-24T13:28:34;10.83;;;2.70;;
3601;SDS011;1815;50.950;6.920;2023-05-24T13:31:01;3.70;;;1.90;;
3601;SDS011;1815;50.950;6.920;2023-05-24T13:33:27;8.20;;;2.03;;
3601;SDS011;1815;50.950;6.920;2023-05-24T13:35:53;5.97;;;2.27;;
3601;SDS011;1815;50.950;6.920;2023-05-24T13:38:19;6.60;;;2.20;;
3601;SDS011;1815;50.950;6.920;2023-05-24T13:40:46;5.13;;;1.90;;
3601;SDS011;1815;50.950;6.920;2023-05-24T13:43:13;6.67;;;2.10;;
3601;SDS011;1815;50.950;6.920;2023-05-24T13:45:39;6.00;;;2.47;;
3601;SDS011;1815;50.950;6.920;2023-05-24T13:48:04;7.40;;;1.80;;
3601;SDS011;1815;50.950;6.920;2023-05-24T13:50:31;7.50;;;1.87;;
3601;SDS011;1815;50.950;6.920;2023-05-24T13:52:58;5.47;;;2.30;;
3601;SDS011;1815;50.950;6.920;2023-05-24T13:55:26;5.60;;;2.00;;
3601;SDS011;1815;50.950;6.920;2023-05-24T13:57:53;6.23;;;2.27;;
3601;SDS011;1815;50.950;6.920;2023-05-24T14:00:21;5.07;;;1.60;;
3601;SDS011;1815;50.950;6.920;2023-05-24T14:02:47;7.53;;;2.17;;
3601;SDS011;1815;50.950;6.920;2023-05-24T14:05:13;5.30;;;1.83;;
3601;SDS011;1815;50.950;6.920;2023-05-24T14:07:39;5.23;;;1.97;;
3601;SDS011;1815;50.950;6.920;2023-05-24T14:10:05;5.80;;;1.80;;
3601;SDS011;1815;50.950;6.920;2023-05-24T14:12:31;6.70;;;1.87;;
3601;SDS011;1815;50.950;6.920;2023-05-24T14:14:57;6.80;;;2.50;;
3601;SDS011;1815;50.950;6.920;2023-05-24T14:17:22;5.27;;;2.10;;
3601;SDS011;1815;50.950;6.920;2023-05-24T14:19:48;6.20;;;1.33;;
3601;SDS011;1815;50.950;6.920;2023-05-24T14:22:14;6.73;;;2.50;;
3601;SDS011;1815;50.950;6.920;2023-05-24T14:24:40;5.33;;;2.07;;
3601;SDS011;1815;50.950;6.920;2023-05-24T14:27:06;6.87;;;2.00;;
3601;SDS011;1815;50.950;6.920;2023-05-24T14:29:32;7.90;;;2.23;;
3601;SDS011;1815;50.950;6.920;2023-05-24T14:31:57;10.60;;;1.87;;
3601;SDS011;1815;50.950;6.920;2023-05-24T14:34:23;8.20;;;2.50;;
3601;SDS011;1815;50.950;6.920;2023-05-24T14:36:49;5.60;;;1.57;;
3601;SDS011;1815;50.950;6.920;2023-05-24T14:39:15;5.60;;;2.30;;
3601;SDS011;1815;50.950;6.920;2023-05-24T14:41:40;5.90;;;1.60;;
3601;SDS011;1815;50.950;6.920;2023-05-24T14:44:06;4.63;;;1.30;;
3601;SDS011;1815;50.950;6.920;2023-05-24T14:46:32;5.73;;;2.30;;
3601;SDS011;1815;50.950;6.920;2023-05-24T14:48:57;4.43;;;1.40;;
3601;SDS011;1815;50.950;6.920;2023-05-24T14:51:23;3.50;;;1.83;;
3601;SDS011;1815;50.950;6.920;2023-05-24T14:53:49;5.70;;;1.83;;
3601;SDS011;1815;50.950;6.920;2023-05-24T14:56:14;9.93;;;2.67;;
3601;SDS011;1815;50.950;6.920;2023-05-24T14:58:40;7.47;;;1.90;;
3601;SDS011;1815;50.950;6.920;2023-05-24T15:01:06;7.33;;;2.00;;
3601;SDS011;1815;50.950;6.920;2023-05-24T15:03:32;4.27;;;1.70;;
3601;SDS011;1815;50.950;6.920;2023-05-24T15:05:59;5.10;;;1.83;;
3601;SDS011;1815;50.950;6.920;2023-05-24T15:08:26;8.27;;;1.90;;
3601;SDS011;1815;50.950;6.920;2023-05-24T15:10:52;8.47;;;2.03;;
3601;SDS011;1815;50.950;6.920;2023-05-24T15:13:18;4.50;;;1.87;;
3601;SDS011;1815;50.950;6.920;2023-05-24T15:15:44;8.10;;;1.70;;
3601;SDS011;1815;50.950;6.920;2023-05-24T15:18:10;6.60;;;2.10;;
3601;SDS011;1815;50.950;6.920;2023-05-24T15:20:36;8.23;;;2.87;;
3601;SDS011;1815;50.950;6.920;2023-05-24T15:23:02;10.27;;;1.80;;
3601;SDS011;1815;50.950;6.920;2023-05-24T15:25:28;5.00;;;2.00;;
3601;SDS011;1815;50.950;6.920;2023-05-24T15:27:54;6.43;;;2.30;;
3601;SDS011;1815;50.950;6.920;2023-05-24T15:30:20;8.60;;;1.67;;
3601;SDS011;1815;50.950;6.920;2023-05-24T15:32:48;4.40;;;1.60;;
3601;SDS011;1815;50.950;6.920;2023-05-24T15:35:13;8.17;;;2.43;;
3601;SDS011;1815;50.950;6.920;2023-05-24T15:37:40;8.97;;;3.30;;
3601;SDS011;1815;50.950;6.920;2023-05-24T15:40:08;9.93;;;2.10;;
3601;SDS011;1815;50.950;6.920;2023-05-24T15:42:34;6.00;;;1.70;;
3601;SDS011;1815;50.950;6.920;2023-05-24T15:45:00;6.53;;;1.80;;